sensor_id;sensor_type;location;lat;lon;timestamp;temperature;humidity
15394;DHT22;7795;47.986;11.868;2022-12-29T00:01:42;4.00;81.20
15394;DHT22;7795;47.986;11.868;2022-12-29T00:04:12;4.00;81.20
15394;DHT22;7795;47.986;11.868;2022-12-29T00:06:38;4.00;81.20
15394;DHT22;7795;47.986;11.868;2022-12-29T00:09:04;4.00;81.10
15394;DHT22;7795;47.986;11.868;2022-12-29T00:11:30;4.00;81.20
15394;DHT22;7795;47.986;11.868;2022-12-29T00:13:55;3.90;81.10
15394;DHT22;7795;47.986;11.868;2022-12-29T00:16:43;4.00;81.20
15394;DHT22;7795;47.986;11.868;2022-12-29T00:19:09;3.90;81.20
15394;DHT22;7795;47.986;11.868;2022-12-29T00:21:53;3.90;81.50
15394;DHT22;7795;47.986;11.868;2022-12-29T00:24:38;3.90;81.00
15394;DHT22;7795;47.986;11.868;2022-12-29T00:27:19;3.90;81.10
15394;DHT22;7795;47.986;11.868;2022-12-29T00:30:08;3.80;81.10
15394;DHT22;7795;47.986;11.868;2022-12-29T00:32:54;3.80;81.20
15394;DHT22;7795;47.986;11.868;2022-12-29T00:35:42;3.80;81.20
15394;DHT22;7795;47.986;11.868;2022-12-29T00:38:10;3.80;81.20
15394;DHT22;7795;47.986;11.868;2022-12-29T00:40:55;3.80;81.20
15394;DHT22;7795;47.986;11.868;2022-12-29T00:43:39;3.70;81.20
15394;DHT22;7795;47.986;11.868;2022-12-29T00:46:24;3.70;81.10
15394;DHT22;7795;47.986;11.868;2022-12-29T00:48:51;3.70;81.90
15394;DHT22;7795;47.986;11.868;2022-12-29T00:51:35;3.70;81.20
15394;DHT22;7795;47.986;11.868;2022-12-29T00:54:01;3.70;81.20
15394;DHT22;7795;47.986;11.868;2022-12-29T00:56:27;3.60;81.20
15394;DHT22;7795;47.986;11.868;2022-12-29T00:58:52;3.60;81.20
15394;DHT22;7795;47.986;11.868;2022-12-29T01:01:18;3.60;81.20
15394;DHT22;7795;47.986;11.868;2022-12-29T01:03:44;3.60;82.00
15394;DHT22;7795;47.986;11.868;2022-12-29T01:06:12;3.60;81.20
15394;DHT22;7795;47.986;11.868;2022-12-29T01:08:38;3.60;81.20
15394;DHT22;7795;47.986;11.868;2022-12-29T01:11:05;3.60;81.20
15394;DHT22;7795;47.986;11.868;2022-12-29T01:13:31;3.50;81.20
15394;DHT22;7795;47.986;11.868;2022-12-29T01:15:57;3.50;81.20
15394;DHT22;7795;47.986;11.868;2022-12-29T01:18:24;3.50;81.30
15394;DHT22;7795;47.986;11.868;2022-12-29T01:20:50;3.50;81.30
15394;DHT22;7795;47.986;11.868;2022-12-29T01:23:17;3.50;81.30
15394;DHT22;7795;47.986;11.868;2022-12-29T01:25:43;3.50;81.30
15394;DHT22;7795;47.986;11.868;2022-12-29T01:28:09;3.50;81.30
15394;DHT22;7795;47.986;11.868;2022-12-29T01:30:35;3.50;81.30
15394;DHT22;7795;47.986;11.868;2022-12-29T01:33:01;3.50;81.30
15394;DHT22;7795;47.986;11.868;2022-12-29T01:35:27;3.40;81.30
15394;DHT22;7795;47.986;11.868;2022-12-29T01:37:53;3.40;81.30
15394;DHT22;7795;47.986;11.868;2022-12-29T01:40:20;3.40;81.30
15394;DHT22;7795;47.986;11.868;2022-12-29T01:42:46;3.40;81.30
15394;DHT22;7795;47.986;11.868;2022-12-29T01:45:12;3.40;81.30
15394;DHT22;7795;47.986;11.868;2022-12-29T01:47:40;3.40;81.30
15394;DHT22;7795;47.986;11.868;2022-12-29T01:50:08;3.40;81.40
15394;DHT22;7795;47.986;11.868;2022-12-29T01:52:38;3.40;81.30
15394;DHT22;7795;47.986;11.868;2022-12-29T01:55:06;3.30;81.20
15394;DHT22;7795;47.986;11.868;2022-12-29T01:57:37;3.30;81.20
15394;DHT22;7795;47.986;11.868;2022-12-29T02:00:06;3.30;81.20
15394;DHT22;7795;47.986;11.868;2022-12-29T02:02:34;3.30;81.20
15394;DHT22;7795;47.986;11.868;2022-12-29T02:05:03;3.30;81.20
15394;DHT22;7795;47.986;11.868;2022-12-29T02:07:30;3.30;81.20
15394;DHT22;7795;47.986;11.868;2022-12-29T02:09:57;3.20;81.20
15394;DHT22;7795;47.986;11.868;2022-12-29T02:12:23;3.20;81.20
15394;DHT22;7795;47.986;11.868;2022-12-29T02:14:56;3.20;81.20
15394;DHT22;7795;47.986;11.868;2022-12-29T02:17:32;3.20;81.20
15394;DHT22;7795;47.986;11.868;2022-12-29T02:20:19;3.20;81.20
15394;DHT22;7795;47.986;11.868;2022-12-29T02:23:00;3.20;81.30
15394;DHT22;7795;47.986;11.868;2022-12-29T02:25:43;3.20;81.30
15394;DHT22;7795;47.986;11.868;2022-12-29T02:28:40;3.20;81.30
15394;DHT22;7795;47.986;11.868;2022-12-29T02:31:16;3.20;81.30
15394;DHT22;7795;47.986;11.868;2022-12-29T02:33:54;3.20;81.30
15394;DHT22;7795;47.986;11.868;2022-12-29T02:36:28;3.20;82.10
15394;DHT22;7795;47.986;11.868;2022-12-29T02:39:00;3.10;81.30
15394;DHT22;7795;47.986;11.868;2022-12-29T02:41:31;3.10;81.30
15394;DHT22;7795;47.986;11.868;2022-12-29T02:44:04;3.10;81.30
15394;DHT22;7795;47.986;11.868;2022-12-29T02:46:37;3.10;81.30
15394;DHT22;7795;47.986;11.868;2022-12-29T02:49:10;3.10;81.30
15394;DHT22;7795;47.986;11.868;2022-12-29T02:51:44;3.10;81.30
15394;DHT22;7795;47.986;11.868;2022-12-29T02:54:12;3.00;81.50
15394;DHT22;7795;47.986;11.868;2022-12-29T02:56:56;3.10;81.50
15394;DHT22;7795;47.986;11.868;2022-12-29T02:59:22;3.10;81.60
15394;DHT22;7795;47.986;11.868;2022-12-29T03:02:19;3.10;81.60
15394;DHT22;7795;47.986;11.868;2022-12-29T03:05:07;3.10;81.60
15394;DHT22;7795;47.986;11.868;2022-12-29T03:07:45;3.10;81.60
15394;DHT22;7795;47.986;11.868;2022-12-29T03:10:19;3.00;81.40
15394;DHT22;7795;47.986;11.868;2022-12-29T03:12:50;3.00;81.30
15394;DHT22;7795;47.986;11.868;2022-12-29T03:15:41;3.00;81.30
15394;DHT22;7795;47.986;11.868;2022-12-29T03:18:34;3.00;81.50
15394;DHT22;7795;47.986;11.868;2022-12-29T03:21:05;3.00;81.60
15394;DHT22;7795;47.986;11.868;2022-12-29T03:23:32;2.90;81.50
15394;DHT22;7795;47.986;11.868;2022-12-29T03:26:02;2.90;82.30
15394;DHT22;7795;47.986;11.868;2022-12-29T03:28:34;2.90;81.80
15394;DHT22;7795;47.986;11.868;2022-12-29T03:31:03;2.90;81.90
15394;DHT22;7795;47.986;11.868;2022-12-29T03:33:32;3.00;82.80
15394;DHT22;7795;47.986;11.868;2022-12-29T03:35:59;3.00;82.20
15394;DHT22;7795;47.986;11.868;2022-12-29T03:38:31;3.00;82.20
15394;DHT22;7795;47.986;11.868;2022-12-29T03:41:06;3.00;82.30
15394;DHT22;7795;47.986;11.868;2022-12-29T03:43:33;3.00;82.30
15394;DHT22;7795;47.986;11.868;2022-12-29T03:45:59;3.10;82.30
15394;DHT22;7795;47.986;11.868;2022-12-29T03:48:25;3.10;82.40
15394;DHT22;7795;47.986;11.868;2022-12-29T03:50:52;3.10;82.40
15394;DHT22;7795;47.986;11.868;2022-12-29T03:53:18;3.10;82.50
15394;DHT22;7795;47.986;11.868;2022-12-29T03:55:44;3.10;82.50
15394;DHT22;7795;47.986;11.868;2022-12-29T03:58:09;3.10;82.50
15394;DHT22;7795;47.986;11.868;2022-12-29T04:00:35;3.10;82.50
15394;DHT22;7795;47.986;11.868;2022-12-29T04:03:01;3.20;82.50
15394;DHT22;7795;47.986;11.868;2022-12-29T04:05:27;3.20;82.50
15394;DHT22;7795;47.986;11.868;2022-12-29T04:07:54;3.20;82.50
15394;DHT22;7795;47.986;11.868;2022-12-29T04:10:19;3.20;82.50
15394;DHT22;7795;47.986;11.868;2022-12-29T04:12:45;3.30;82.50
15394;DHT22;7795;47.986;11.868;2022-12-29T04:15:12;3.30;82.40
15394;DHT22;7795;47.986;11.868;2022-12-29T04:17:38;3.30;82.40
15394;DHT22;7795;47.986;11.868;2022-12-29T04:20:04;3.30;82.40
15394;DHT22;7795;47.986;11.868;2022-12-29T04:22:49;3.30;82.50
15394;DHT22;7795;47.986;11.868;2022-12-29T04:25:16;3.30;82.30
15394;DHT22;7795;47.986;11.868;2022-12-29T04:27:42;3.30;82.40
15394;DHT22;7795;47.986;11.868;2022-12-29T04:30:09;3.40;83.20
15394;DHT22;7795;47.986;11.868;2022-12-29T04:32:35;3.40;82.60
15394;DHT22;7795;47.986;11.868;2022-12-29T04:35:01;3.40;82.60
15394;DHT22;7795;47.986;11.868;2022-12-29T04:37:26;3.40;82.60
15394;DHT22;7795;47.986;11.868;2022-12-29T04:39:52;3.40;82.70
15394;DHT22;7795;47.986;11.868;2022-12-29T04:42:19;3.50;82.80
15394;DHT22;7795;47.986;11.868;2022-12-29T04:44:45;3.50;82.80
15394;DHT22;7795;47.986;11.868;2022-12-29T04:47:11;3.50;82.80
15394;DHT22;7795;47.986;11.868;2022-12-29T04:49:36;3.60;82.80
15394;DHT22;7795;47.986;11.868;2022-12-29T04:52:02;3.60;82.80
15394;DHT22;7795;47.986;11.868;2022-12-29T04:54:29;3.70;82.90
15394;DHT22;7795;47.986;11.868;2022-12-29T04:56:54;3.70;82.90
15394;DHT22;7795;47.986;11.868;2022-12-29T04:59:22;3.70;82.80
15394;DHT22;7795;47.986;11.868;2022-12-29T05:01:47;3.80;82.80
15394;DHT22;7795;47.986;11.868;2022-12-29T05:04:13;3.80;82.80
15394;DHT22;7795;47.986;11.868;2022-12-29T05:06:39;3.80;82.80
15394;DHT22;7795;47.986;11.868;2022-12-29T05:09:04;3.80;82.80
15394;DHT22;7795;47.986;11.868;2022-12-29T05:11:31;3.90;82.80
15394;DHT22;7795;47.986;11.868;2022-12-29T05:13:56;3.90;82.90
15394;DHT22;7795;47.986;11.868;2022-12-29T05:16:24;3.90;82.90
15394;DHT22;7795;47.986;11.868;2022-12-29T05:18:49;4.00;83.00
15394;DHT22;7795;47.986;11.868;2022-12-29T05:21:15;4.00;82.90
15394;DHT22;7795;47.986;11.868;2022-12-29T05:23:41;4.00;83.00
15394;DHT22;7795;47.986;11.868;2022-12-29T05:26:06;4.10;83.00
15394;DHT22;7795;47.986;11.868;2022-12-29T05:28:32;4.10;83.00
15394;DHT22;7795;47.986;11.868;2022-12-29T05:30:58;4.10;83.30
15394;DHT22;7795;47.986;11.868;2022-12-29T05:33:25;4.20;83.10
15394;DHT22;7795;47.986;11.868;2022-12-29T05:35:51;4.20;83.10
15394;DHT22;7795;47.986;11.868;2022-12-29T05:38:16;4.30;83.10
15394;DHT22;7795;47.986;11.868;2022-12-29T05:40:43;4.30;83.10
15394;DHT22;7795;47.986;11.868;2022-12-29T05:43:09;4.30;83.10
15394;DHT22;7795;47.986;11.868;2022-12-29T05:45:35;4.40;83.10
15394;DHT22;7795;47.986;11.868;2022-12-29T05:48:01;4.40;83.00
15394;DHT22;7795;47.986;11.868;2022-12-29T05:50:29;4.40;83.00
15394;DHT22;7795;47.986;11.868;2022-12-29T05:52:54;4.40;83.00
15394;DHT22;7795;47.986;11.868;2022-12-29T05:55:20;4.40;83.70
15394;DHT22;7795;47.986;11.868;2022-12-29T05:57:46;4.50;83.00
15394;DHT22;7795;47.986;11.868;2022-12-29T06:00:12;4.50;82.90
15394;DHT22;7795;47.986;11.868;2022-12-29T06:02:38;4.50;82.90
15394;DHT22;7795;47.986;11.868;2022-12-29T06:05:05;4.50;82.80
15394;DHT22;7795;47.986;11.868;2022-12-29T06:07:32;4.50;83.00
15394;DHT22;7795;47.986;11.868;2022-12-29T06:09:57;4.50;83.00
15394;DHT22;7795;47.986;11.868;2022-12-29T06:12:23;4.50;83.00
15394;DHT22;7795;47.986;11.868;2022-12-29T06:14:49;4.60;83.10
15394;DHT22;7795;47.986;11.868;2022-12-29T06:17:15;4.60;83.10
15394;DHT22;7795;47.986;11.868;2022-12-29T06:19:41;4.60;83.10
15394;DHT22;7795;47.986;11.868;2022-12-29T06:22:06;4.60;83.10
15394;DHT22;7795;47.986;11.868;2022-12-29T06:24:34;4.70;83.10
15394;DHT22;7795;47.986;11.868;2022-12-29T06:27:00;4.70;83.10
15394;DHT22;7795;47.986;11.868;2022-12-29T06:29:25;4.70;83.80
15394;DHT22;7795;47.986;11.868;2022-12-29T06:31:51;4.70;83.00
15394;DHT22;7795;47.986;11.868;2022-12-29T06:34:21;4.80;83.00
15394;DHT22;7795;47.986;11.868;2022-12-29T06:36:47;4.80;83.00
15394;DHT22;7795;47.986;11.868;2022-12-29T06:39:13;4.80;83.10
15394;DHT22;7795;47.986;11.868;2022-12-29T06:41:40;4.80;82.90
15394;DHT22;7795;47.986;11.868;2022-12-29T06:44:06;4.80;82.90
15394;DHT22;7795;47.986;11.868;2022-12-29T06:46:31;4.80;82.80
15394;DHT22;7795;47.986;11.868;2022-12-29T06:48:57;4.80;82.90
15394;DHT22;7795;47.986;11.868;2022-12-29T06:51:23;4.80;82.80
15394;DHT22;7795;47.986;11.868;2022-12-29T06:53:49;4.80;82.70
15394;DHT22;7795;47.986;11.868;2022-12-29T06:56:14;4.80;82.70
15394;DHT22;7795;47.986;11.868;2022-12-29T06:58:41;4.80;82.70
15394;DHT22;7795;47.986;11.868;2022-12-29T07:01:07;4.80;82.70
15394;DHT22;7795;47.986;11.868;2022-12-29T07:03:33;4.80;82.70
15394;DHT22;7795;47.986;11.868;2022-12-29T07:05:59;4.80;82.70
15394;DHT22;7795;47.986;11.868;2022-12-29T07:08:24;4.80;82.70
15394;DHT22;7795;47.986;11.868;2022-12-29T07:10:50;4.80;82.70
15394;DHT22;7795;47.986;11.868;2022-12-29T07:13:16;4.80;82.70
15394;DHT22;7795;47.986;11.868;2022-12-29T07:15:43;4.80;82.70
15394;DHT22;7795;47.986;11.868;2022-12-29T07:18:09;4.80;82.80
15394;DHT22;7795;47.986;11.868;2022-12-29T07:20:35;4.90;82.90
15394;DHT22;7795;47.986;11.868;2022-12-29T07:23:00;4.80;82.90
15394;DHT22;7795;47.986;11.868;2022-12-29T07:25:27;4.90;83.00
15394;DHT22;7795;47.986;11.868;2022-12-29T07:27:54;4.90;83.00
15394;DHT22;7795;47.986;11.868;2022-12-29T07:30:20;4.90;83.00
15394;DHT22;7795;47.986;11.868;2022-12-29T07:32:47;4.90;83.00
15394;DHT22;7795;47.986;11.868;2022-12-29T07:35:13;5.00;83.10
15394;DHT22;7795;47.986;11.868;2022-12-29T07:37:38;5.00;83.10
15394;DHT22;7795;47.986;11.868;2022-12-29T07:40:05;5.00;83.10
15394;DHT22;7795;47.986;11.868;2022-12-29T07:42:31;5.00;83.20
15394;DHT22;7795;47.986;11.868;2022-12-29T07:44:57;5.00;83.10
15394;DHT22;7795;47.986;11.868;2022-12-29T07:47:23;5.00;83.20
15394;DHT22;7795;47.986;11.868;2022-12-29T07:49:50;5.10;83.20
15394;DHT22;7795;47.986;11.868;2022-12-29T07:52:16;5.10;83.20
15394;DHT22;7795;47.986;11.868;2022-12-29T07:54:42;5.10;83.20
15394;DHT22;7795;47.986;11.868;2022-12-29T07:57:08;5.10;83.20
15394;DHT22;7795;47.986;11.868;2022-12-29T07:59:34;5.10;83.30
15394;DHT22;7795;47.986;11.868;2022-12-29T08:02:00;5.20;83.40
15394;DHT22;7795;47.986;11.868;2022-12-29T08:04:25;5.20;83.40
15394;DHT22;7795;47.986;11.868;2022-12-29T08:06:53;5.20;83.30
15394;DHT22;7795;47.986;11.868;2022-12-29T08:09:18;5.30;83.40
15394;DHT22;7795;47.986;11.868;2022-12-29T08:11:47;5.30;83.20
15394;DHT22;7795;47.986;11.868;2022-12-29T08:14:13;5.30;83.10
15394;DHT22;7795;47.986;11.868;2022-12-29T08:16:40;5.30;83.00
15394;DHT22;7795;47.986;11.868;2022-12-29T08:19:06;5.30;82.90
15394;DHT22;7795;47.986;11.868;2022-12-29T08:21:32;5.40;83.00
15394;DHT22;7795;47.986;11.868;2022-12-29T08:23:59;5.40;83.00
15394;DHT22;7795;47.986;11.868;2022-12-29T08:26:24;5.40;83.00
15394;DHT22;7795;47.986;11.868;2022-12-29T08:28:52;5.40;83.00
15394;DHT22;7795;47.986;11.868;2022-12-29T08:31:18;5.40;83.00
15394;DHT22;7795;47.986;11.868;2022-12-29T08:33:44;5.40;83.00
15394;DHT22;7795;47.986;11.868;2022-12-29T08:36:10;5.40;83.00
15394;DHT22;7795;47.986;11.868;2022-12-29T08:38:35;5.50;83.20
15394;DHT22;7795;47.986;11.868;2022-12-29T08:41:03;5.50;83.20
15394;DHT22;7795;47.986;11.868;2022-12-29T08:43:29;5.60;84.00
15394;DHT22;7795;47.986;11.868;2022-12-29T08:45:55;5.60;83.30
15394;DHT22;7795;47.986;11.868;2022-12-29T08:48:22;5.60;83.30
15394;DHT22;7795;47.986;11.868;2022-12-29T08:50:49;5.60;83.20
15394;DHT22;7795;47.986;11.868;2022-12-29T08:53:15;5.70;83.20
15394;DHT22;7795;47.986;11.868;2022-12-29T08:55:41;5.70;83.10
15394;DHT22;7795;47.986;11.868;2022-12-29T08:58:08;5.80;83.20
15394;DHT22;7795;47.986;11.868;2022-12-29T09:00:34;5.80;83.10
15394;DHT22;7795;47.986;11.868;2022-12-29T09:03:00;5.80;83.10
15394;DHT22;7795;47.986;11.868;2022-12-29T09:05:26;5.90;83.20
15394;DHT22;7795;47.986;11.868;2022-12-29T09:07:51;5.90;84.00
15394;DHT22;7795;47.986;11.868;2022-12-29T09:10:17;5.90;83.20
15394;DHT22;7795;47.986;11.868;2022-12-29T09:12:43;6.00;83.20
15394;DHT22;7795;47.986;11.868;2022-12-29T09:15:10;6.00;83.10
15394;DHT22;7795;47.986;11.868;2022-12-29T09:17:37;6.10;83.10
15394;DHT22;7795;47.986;11.868;2022-12-29T09:20:13;6.10;83.10
15394;DHT22;7795;47.986;11.868;2022-12-29T09:22:39;6.10;83.00
15394;DHT22;7795;47.986;11.868;2022-12-29T09:25:06;6.20;83.00
15394;DHT22;7795;47.986;11.868;2022-12-29T09:27:31;6.30;83.00
15394;DHT22;7795;47.986;11.868;2022-12-29T09:29:57;6.30;82.90
15394;DHT22;7795;47.986;11.868;2022-12-29T09:32:25;6.40;82.90
15394;DHT22;7795;47.986;11.868;2022-12-29T09:34:50;6.40;82.80
15394;DHT22;7795;47.986;11.868;2022-12-29T09:37:16;6.50;82.80
15394;DHT22;7795;47.986;11.868;2022-12-29T09:39:42;6.50;82.60
15394;DHT22;7795;47.986;11.868;2022-12-29T09:42:12;6.50;82.60
15394;DHT22;7795;47.986;11.868;2022-12-29T09:44:56;6.60;82.60
15394;DHT22;7795;47.986;11.868;2022-12-29T09:47:27;6.60;82.50
15394;DHT22;7795;47.986;11.868;2022-12-29T09:49:55;6.70;82.50
15394;DHT22;7795;47.986;11.868;2022-12-29T09:52:23;6.70;82.50
15394;DHT22;7795;47.986;11.868;2022-12-29T09:54:56;6.70;82.30
15394;DHT22;7795;47.986;11.868;2022-12-29T09:57:25;6.80;82.40
15394;DHT22;7795;47.986;11.868;2022-12-29T09:59:55;6.80;82.50
15394;DHT22;7795;47.986;11.868;2022-12-29T10:02:37;6.90;82.60
15394;DHT22;7795;47.986;11.868;2022-12-29T10:05:04;6.90;82.40
15394;DHT22;7795;47.986;11.868;2022-12-29T10:07:42;7.00;82.40
15394;DHT22;7795;47.986;11.868;2022-12-29T10:10:22;7.00;82.30
15394;DHT22;7795;47.986;11.868;2022-12-29T10:12:58;7.10;82.30
15394;DHT22;7795;47.986;11.868;2022-12-29T10:15:38;7.10;82.30
15394;DHT22;7795;47.986;11.868;2022-12-29T10:18:35;7.20;82.40
15394;DHT22;7795;47.986;11.868;2022-12-29T10:21:12;7.30;82.50
15394;DHT22;7795;47.986;11.868;2022-12-29T10:23:40;7.30;82.50
15394;DHT22;7795;47.986;11.868;2022-12-29T10:26:12;7.40;82.50
15394;DHT22;7795;47.986;11.868;2022-12-29T10:28:42;7.50;82.30
15394;DHT22;7795;47.986;11.868;2022-12-29T10:31:13;7.60;82.30
15394;DHT22;7795;47.986;11.868;2022-12-29T10:33:43;7.60;82.20
15394;DHT22;7795;47.986;11.868;2022-12-29T10:36:16;7.70;83.00
15394;DHT22;7795;47.986;11.868;2022-12-29T10:38:48;7.80;82.00
15394;DHT22;7795;47.986;11.868;2022-12-29T10:41:18;7.90;82.00
15394;DHT22;7795;47.986;11.868;2022-12-29T10:43:47;7.90;82.60
15394;DHT22;7795;47.986;11.868;2022-12-29T10:46:17;8.00;82.00
15394;DHT22;7795;47.986;11.868;2022-12-29T10:48:45;8.20;82.00
15394;DHT22;7795;47.986;11.868;2022-12-29T10:51:19;8.20;82.00
15394;DHT22;7795;47.986;11.868;2022-12-29T10:53:47;8.30;81.90
15394;DHT22;7795;47.986;11.868;2022-12-29T10:56:21;8.40;81.90
15394;DHT22;7795;47.986;11.868;2022-12-29T10:58:48;8.50;81.70
15394;DHT22;7795;47.986;11.868;2022-12-29T11:01:16;8.60;81.40
15394;DHT22;7795;47.986;11.868;2022-12-29T11:03:55;8.70;81.30
15394;DHT22;7795;47.986;11.868;2022-12-29T11:06:26;8.80;81.10
15394;DHT22;7795;47.986;11.868;2022-12-29T11:08:56;8.80;81.10
15394;DHT22;7795;47.986;11.868;2022-12-29T11:11:26;8.90;81.00
15394;DHT22;7795;47.986;11.868;2022-12-29T11:13:57;9.00;80.80
15394;DHT22;7795;47.986;11.868;2022-12-29T11:16:28;9.10;80.60
15394;DHT22;7795;47.986;11.868;2022-12-29T11:18:57;9.20;80.40
15394;DHT22;7795;47.986;11.868;2022-12-29T11:21:31;9.20;80.30
15394;DHT22;7795;47.986;11.868;2022-12-29T11:23:58;9.30;80.20
15394;DHT22;7795;47.986;11.868;2022-12-29T11:26:25;9.40;80.20
15394;DHT22;7795;47.986;11.868;2022-12-29T11:29:22;9.50;80.10
15394;DHT22;7795;47.986;11.868;2022-12-29T11:31:50;9.60;79.30
15394;DHT22;7795;47.986;11.868;2022-12-29T11:34:22;9.60;79.60
15394;DHT22;7795;47.986;11.868;2022-12-29T11:36:50;9.70;80.00
15394;DHT22;7795;47.986;11.868;2022-12-29T11:39:36;9.80;79.20
15394;DHT22;7795;47.986;11.868;2022-12-29T11:42:03;9.80;78.50
15394;DHT22;7795;47.986;11.868;2022-12-29T11:44:35;9.90;79.00
15394;DHT22;7795;47.986;11.868;2022-12-29T11:47:02;9.90;78.60
15394;DHT22;7795;47.986;11.868;2022-12-29T11:49:30;10.00;78.70
15394;DHT22;7795;47.986;11.868;2022-12-29T11:51:56;10.00;78.40
15394;DHT22;7795;47.986;11.868;2022-12-29T11:54:24;10.10;78.40
15394;DHT22;7795;47.986;11.868;2022-12-29T11:56:52;10.20;78.20
15394;DHT22;7795;47.986;11.868;2022-12-29T11:59:25;10.20;78.10
15394;DHT22;7795;47.986;11.868;2022-12-29T12:02:02;10.30;77.40
15394;DHT22;7795;47.986;11.868;2022-12-29T12:04:34;10.30;77.40
15394;DHT22;7795;47.986;11.868;2022-12-29T12:07:03;10.40;77.00
15394;DHT22;7795;47.986;11.868;2022-12-29T12:09:34;10.50;77.00
15394;DHT22;7795;47.986;11.868;2022-12-29T12:12:01;10.50;76.70
15394;DHT22;7795;47.986;11.868;2022-12-29T12:14:34;10.50;76.60
15394;DHT22;7795;47.986;11.868;2022-12-29T12:17:04;10.60;76.20
15394;DHT22;7795;47.986;11.868;2022-12-29T12:19:37;10.70;76.00
15394;DHT22;7795;47.986;11.868;2022-12-29T12:22:10;10.70;75.60
15394;DHT22;7795;47.986;11.868;2022-12-29T12:24:41;10.80;75.30
15394;DHT22;7795;47.986;11.868;2022-12-29T12:27:12;10.80;75.10
15394;DHT22;7795;47.986;11.868;2022-12-29T12:29:45;10.90;74.80
15394;DHT22;7795;47.986;11.868;2022-12-29T12:32:17;10.90;74.60
15394;DHT22;7795;47.986;11.868;2022-12-29T12:34:47;11.00;74.70
15394;DHT22;7795;47.986;11.868;2022-12-29T12:40:32;11.10;73.50
15394;DHT22;7795;47.986;11.868;2022-12-29T12:43:11;11.10;73.80
15394;DHT22;7795;47.986;11.868;2022-12-29T12:45:51;11.20;74.00
15394;DHT22;7795;47.986;11.868;2022-12-29T12:48:35;11.20;73.80
15394;DHT22;7795;47.986;11.868;2022-12-29T12:51:12;11.30;73.50
15394;DHT22;7795;47.986;11.868;2022-12-29T12:53:53;11.30;73.40
15394;DHT22;7795;47.986;11.868;2022-12-29T12:59:23;11.40;73.00
15394;DHT22;7795;47.986;11.868;2022-12-29T13:01:59;11.50;73.10
15394;DHT22;7795;47.986;11.868;2022-12-29T13:04:51;11.60;73.10
15394;DHT22;7795;47.986;11.868;2022-12-29T13:07:28;11.60;72.10
15394;DHT22;7795;47.986;11.868;2022-12-29T13:10:12;11.60;72.40
15394;DHT22;7795;47.986;11.868;2022-12-29T13:12:46;11.70;72.40
15394;DHT22;7795;47.986;11.868;2022-12-29T13:15:22;11.80;72.90
15394;DHT22;7795;47.986;11.868;2022-12-29T13:17:56;11.80;72.80
15394;DHT22;7795;47.986;11.868;2022-12-29T13:20:29;11.90;72.10
15394;DHT22;7795;47.986;11.868;2022-12-29T13:23:04;12.00;71.90
15394;DHT22;7795;47.986;11.868;2022-12-29T13:25:37;12.00;71.60
15394;DHT22;7795;47.986;11.868;2022-12-29T13:28:12;12.10;71.70
15394;DHT22;7795;47.986;11.868;2022-12-29T13:30:44;12.10;71.60
15394;DHT22;7795;47.986;11.868;2022-12-29T13:33:17;12.20;71.80
15394;DHT22;7795;47.986;11.868;2022-12-29T13:35:56;12.20;72.30
15394;DHT22;7795;47.986;11.868;2022-12-29T13:38:30;12.30;71.20
15394;DHT22;7795;47.986;11.868;2022-12-29T13:41:01;12.30;71.00
15394;DHT22;7795;47.986;11.868;2022-12-29T13:43:30;12.40;71.30
15394;DHT22;7795;47.986;11.868;2022-12-29T13:46:01;12.40;71.20
15394;DHT22;7795;47.986;11.868;2022-12-29T13:48:36;12.40;71.20
15394;DHT22;7795;47.986;11.868;2022-12-29T13:51:03;12.50;70.60
15394;DHT22;7795;47.986;11.868;2022-12-29T13:53:37;12.50;71.20
15394;DHT22;7795;47.986;11.868;2022-12-29T13:56:09;12.50;70.70
15394;DHT22;7795;47.986;11.868;2022-12-29T13:58:43;12.50;70.90
15394;DHT22;7795;47.986;11.868;2022-12-29T14:01:15;12.50;70.50
15394;DHT22;7795;47.986;11.868;2022-12-29T14:03:46;12.50;70.50
15394;DHT22;7795;47.986;11.868;2022-12-29T14:06:21;12.40;70.60
15394;DHT22;7795;47.986;11.868;2022-12-29T14:08:53;12.40;70.30
15394;DHT22;7795;47.986;11.868;2022-12-29T14:11:22;12.40;70.70
15394;DHT22;7795;47.986;11.868;2022-12-29T14:13:50;12.40;70.70
15394;DHT22;7795;47.986;11.868;2022-12-29T14:16:29;12.40;70.90
15394;DHT22;7795;47.986;11.868;2022-12-29T14:18:56;12.40;70.20
15394;DHT22;7795;47.986;11.868;2022-12-29T14:21:29;12.30;70.80
15394;DHT22;7795;47.986;11.868;2022-12-29T14:30:46;12.20;70.30
15394;DHT22;7795;47.986;11.868;2022-12-29T14:33:14;12.20;70.30
15394;DHT22;7795;47.986;11.868;2022-12-29T14:35:42;12.10;71.10
15394;DHT22;7795;47.986;11.868;2022-12-29T14:38:19;12.10;71.80
15394;DHT22;7795;47.986;11.868;2022-12-29T14:40:48;12.10;70.70
15394;DHT22;7795;47.986;11.868;2022-12-29T14:43:20;12.00;71.20
15394;DHT22;7795;47.986;11.868;2022-12-29T14:45:54;12.00;71.30
15394;DHT22;7795;47.986;11.868;2022-12-29T14:48:37;11.90;71.30
15394;DHT22;7795;47.986;11.868;2022-12-29T14:51:20;11.90;71.20
15394;DHT22;7795;47.986;11.868;2022-12-29T14:53:48;11.80;71.30
15394;DHT22;7795;47.986;11.868;2022-12-29T14:56:16;11.70;71.50
15394;DHT22;7795;47.986;11.868;2022-12-29T14:58:51;11.70;71.60
15394;DHT22;7795;47.986;11.868;2022-12-29T15:01:23;11.70;71.50
15394;DHT22;7795;47.986;11.868;2022-12-29T15:03:53;11.60;71.70
15394;DHT22;7795;47.986;11.868;2022-12-29T15:06:20;11.60;71.70
15394;DHT22;7795;47.986;11.868;2022-12-29T15:08:51;11.60;71.80
15394;DHT22;7795;47.986;11.868;2022-12-29T15:11:22;11.50;71.80
15394;DHT22;7795;47.986;11.868;2022-12-29T15:13:51;11.50;71.80
15394;DHT22;7795;47.986;11.868;2022-12-29T15:16:24;11.40;72.00
15394;DHT22;7795;47.986;11.868;2022-12-29T15:18:50;11.40;71.90
15394;DHT22;7795;47.986;11.868;2022-12-29T15:21:17;11.40;72.20
15394;DHT22;7795;47.986;11.868;2022-12-29T15:23:46;11.30;72.30
15394;DHT22;7795;47.986;11.868;2022-12-29T15:26:13;11.30;72.40
15394;DHT22;7795;47.986;11.868;2022-12-29T15:28:49;11.20;72.50
15394;DHT22;7795;47.986;11.868;2022-12-29T15:31:17;11.20;72.60
15394;DHT22;7795;47.986;11.868;2022-12-29T15:33:45;11.10;72.70
15394;DHT22;7795;47.986;11.868;2022-12-29T15:36:18;11.00;72.70
15394;DHT22;7795;47.986;11.868;2022-12-29T15:38:45;11.00;72.80
15394;DHT22;7795;47.986;11.868;2022-12-29T15:41:29;10.90;73.00
15394;DHT22;7795;47.986;11.868;2022-12-29T15:44:07;10.90;73.10
15394;DHT22;7795;47.986;11.868;2022-12-29T15:46:36;10.80;73.30
15394;DHT22;7795;47.986;11.868;2022-12-29T15:49:05;10.70;73.40
15394;DHT22;7795;47.986;11.868;2022-12-29T15:51:34;10.70;73.40
15394;DHT22;7795;47.986;11.868;2022-12-29T15:54:01;10.60;73.40
15394;DHT22;7795;47.986;11.868;2022-12-29T15:56:29;10.60;73.50
15394;DHT22;7795;47.986;11.868;2022-12-29T15:58:55;10.50;73.50
15394;DHT22;7795;47.986;11.868;2022-12-29T16:01:27;10.40;73.50
15394;DHT22;7795;47.986;11.868;2022-12-29T16:03:54;10.40;73.70
15394;DHT22;7795;47.986;11.868;2022-12-29T16:06:29;10.30;73.70
15394;DHT22;7795;47.986;11.868;2022-12-29T16:08:57;10.20;73.90
15394;DHT22;7795;47.986;11.868;2022-12-29T16:11:26;10.10;74.00
15394;DHT22;7795;47.986;11.868;2022-12-29T16:13:53;10.10;74.10